createdAt,value
2018-04-15T00:00:33.440Z,90.40
2018-04-15T00:03:00.971Z,102.37
2018-04-15T00:05:28.468Z,107.60
2018-04-15T00:07:56.020Z,104.33
2018-04-15T00:10:23.526Z,100.77
2018-04-15T00:12:51.038Z,104.03
2018-04-15T00:15:18.540Z,98.33
2018-04-15T00:17:46.051Z,98.50
2018-04-15T00:20:13.613Z,96.53
2018-04-15T00:22:41.157Z,98.60
2018-04-15T00:25:08.657Z,99.53
2018-04-15T00:27:36.234Z,89.03
2018-04-15T00:30:04.489Z,99.23
2018-04-15T00:32:32.004Z,92.70
2018-04-15T00:35:00.271Z,88.90
2018-04-15T00:37:27.800Z,91.90
2018-04-15T00:39:55.338Z,83.40
2018-04-15T00:42:23.625Z,87.83
2018-04-15T00:44:51.881Z,82.40
2018-04-15T00:47:19.450Z,90.37
2018-04-15T00:49:46.976Z,90.23
2018-04-15T00:52:14.510Z,83.63
2018-04-15T00:54:42.091Z,84.57
2018-04-15T00:57:10.393Z,84.40
2018-04-15T00:59:37.911Z,87.80
2018-04-15T01:02:05.403Z,81.53
2018-04-15T01:04:33.233Z,71.57
2018-04-15T01:07:00.723Z,71.33
2018-04-15T01:09:28.256Z,75.53
2018-04-15T01:11:55.801Z,74.00
2018-04-15T01:14:23.401Z,72.77
2018-04-15T01:16:50.900Z,69.50
2018-04-15T01:19:18.388Z,70.07
2018-04-15T01:21:45.989Z,71.73
2018-04-15T01:24:14.245Z,68.63
2018-04-15T01:26:42.586Z,66.83
2018-04-15T01:29:10.843Z,61.53
2018-04-15T01:31:38.369Z,70.03
2018-04-15T01:34:05.845Z,65.37
2018-04-15T01:36:33.355Z,60.00
2018-04-15T01:39:00.941Z,62.67
2018-04-15T01:41:29.315Z,66.13
2018-04-15T01:43:56.883Z,61.47
2018-04-15T01:46:24.415Z,65.00
2018-04-15T01:48:51.945Z,60.83
2018-04-15T01:51:20.201Z,60.53
2018-04-15T01:53:47.771Z,59.17
2018-04-15T01:56:15.261Z,54.90
2018-04-15T01:58:42.770Z,51.47
2018-04-15T02:01:10.254Z,55.37
2018-04-15T02:03:37.785Z,59.27
2018-04-15T02:06:06.043Z,54.23
2018-04-15T02:08:33.559Z,52.43
2018-04-15T02:11:01.075Z,53.03
2018-04-15T02:13:28.632Z,60.47
2018-04-15T02:15:56.128Z,57.43
2018-04-15T02:18:23.698Z,54.50
2018-04-15T02:20:51.180Z,52.47
2018-04-15T02:23:18.770Z,50.87
2018-04-15T02:25:47.039Z,47.53
2018-04-15T02:28:14.613Z,52.97
2018-04-15T02:30:42.136Z,48.33
2018-04-15T02:33:09.638Z,52.00
2018-04-15T02:35:37.154Z,59.17
2018-04-15T02:38:04.814Z,53.07
2018-04-15T02:40:33.116Z,53.03
2018-04-15T02:43:00.647Z,51.40
2018-04-15T02:45:28.180Z,49.23
2018-04-15T02:47:55.812Z,52.07
2018-04-15T02:50:24.085Z,46.27
2018-04-15T02:52:52.409Z,47.67
2018-04-15T02:55:19.897Z,47.60
2018-04-15T02:57:47.419Z,48.97
2018-04-15T03:00:14.923Z,48.87
2018-04-15T03:02:42.477Z,47.00
2018-04-15T03:05:10.753Z,49.33
2018-04-15T03:07:38.284Z,49.33
2018-04-15T03:10:05.765Z,53.83
2018-04-15T03:12:33.280Z,50.73
2018-04-15T03:15:01.661Z,53.30
2018-04-15T03:17:29.960Z,51.47
2018-04-15T03:19:58.233Z,52.03
2018-04-15T03:22:26.491Z,59.43
2018-04-15T03:24:54.008Z,54.73
2018-04-15T03:27:22.271Z,58.00
2018-04-15T03:29:49.805Z,55.57
2018-04-15T03:32:17.301Z,72.23
2018-04-15T03:34:44.977Z,68.70
2018-04-15T03:37:12.498Z,67.77
2018-04-15T03:39:40.025Z,68.37
2018-04-15T03:44:41.572Z,81.43
2018-04-15T03:47:09.201Z,74.80
2018-04-15T03:49:36.719Z,82.97
2018-04-15T03:52:04.258Z,83.07
2018-04-15T03:54:32.520Z,85.80
2018-04-15T03:57:00.116Z,79.27
2018-04-15T03:59:27.693Z,95.30
2018-04-15T04:01:55.953Z,91.00
2018-04-15T04:04:23.576Z,90.23
2018-04-15T04:06:51.160Z,85.57
2018-04-15T04:09:18.793Z,82.77
2018-04-15T04:11:47.050Z,86.83
2018-04-15T04:14:14.603Z,95.30
2018-04-15T04:16:42.102Z,93.27
2018-04-15T04:19:22.365Z,84.40
2018-04-15T04:22:01.654Z,97.70
2018-04-15T04:24:41.192Z,88.17
2018-04-15T04:27:09.468Z,89.90
2018-04-15T04:29:37.744Z,89.37
2018-04-15T04:32:05.342Z,92.43
2018-04-15T04:34:33.590Z,95.70
2018-04-15T04:37:01.118Z,102.47
2018-04-15T04:39:28.636Z,91.70
2018-04-15T04:41:56.153Z,81.80
2018-04-15T04:44:23.804Z,101.77
2018-04-15T04:46:52.090Z,101.47
2018-04-15T04:49:19.619Z,86.90
2018-04-15T04:51:47.131Z,94.27
2018-04-15T04:54:15.377Z,99.17
2018-04-15T04:56:42.939Z,101.53
2018-04-15T04:59:10.447Z,109.20
2018-04-15T05:01:38.023Z,99.77
2018-04-15T05:04:05.507Z,109.30
2018-04-15T05:06:33.790Z,96.47
2018-04-15T05:09:02.039Z,97.97
2018-04-15T05:11:29.553Z,107.27
2018-04-15T05:13:57.824Z,97.60
2018-04-15T05:16:25.523Z,105.70
2018-04-15T05:18:53.763Z,97.03
2018-04-15T05:21:21.302Z,100.03
2018-04-15T05:23:48.794Z,84.63
2018-04-15T05:26:16.355Z,102.03
2018-04-15T05:28:43.839Z,80.40
2018-04-15T05:31:12.186Z,77.40
2018-04-15T05:33:39.695Z,75.23
2018-04-15T05:36:07.227Z,66.30
2018-04-15T05:38:35.475Z,64.87
2018-04-15T05:41:02.964Z,59.77
2018-04-15T05:43:30.475Z,64.13
2018-04-15T05:45:57.951Z,57.60
2018-04-15T05:48:25.475Z,52.53
2018-04-15T05:50:53.146Z,53.80
2018-04-15T05:53:20.657Z,51.40
2018-04-15T05:55:48.196Z,51.57
2018-04-15T05:58:15.676Z,50.23
2018-04-15T06:00:44.045Z,54.63
2018-04-15T06:03:12.389Z,47.17
2018-04-15T06:05:39.897Z,49.30
2018-04-15T06:08:07.413Z,51.10
2018-04-15T06:10:34.913Z,44.60
2018-04-15T06:13:02.612Z,44.80
2018-04-15T06:15:30.983Z,41.93
2018-04-15T06:17:58.593Z,44.80
2018-04-15T06:20:26.199Z,45.70
2018-04-15T06:22:53.734Z,42.50
2018-04-15T06:25:21.220Z,43.57
2018-04-15T06:27:49.500Z,42.50
2018-04-15T06:30:17.753Z,41.30
2018-04-15T06:32:45.359Z,42.40
2018-04-15T06:35:13.617Z,44.20
2018-04-15T06:37:41.153Z,43.20
2018-04-15T06:40:08.668Z,42.03
2018-04-15T06:42:36.302Z,40.33
2018-04-15T06:45:03.828Z,37.50
2018-04-15T06:47:32.160Z,35.20
2018-04-15T06:49:59.701Z,38.83
2018-04-15T06:52:27.957Z,40.43
2018-04-15T06:54:55.456Z,42.43
2018-04-15T06:57:23.765Z,39.60
2018-04-15T06:59:51.341Z,35.07
2018-04-15T07:02:18.959Z,36.33
2018-04-15T07:04:46.451Z,33.97
2018-04-15T07:07:14.202Z,37.27
2018-04-15T07:09:41.749Z,36.63
2018-04-15T07:12:09.265Z,34.00
2018-04-15T07:14:37.008Z,33.73
2018-04-15T07:17:04.551Z,25.97
2018-04-15T07:19:32.048Z,27.90
2018-04-15T07:21:59.625Z,27.23
2018-04-15T07:24:27.115Z,28.23
2018-04-15T07:26:54.650Z,25.47
2018-04-15T07:29:22.155Z,25.80
2018-04-15T07:31:49.833Z,24.50
2018-04-15T07:34:17.358Z,21.63
2018-04-15T07:36:44.856Z,22.50
2018-04-15T07:39:12.404Z,19.27
2018-04-15T07:41:39.946Z,22.50
2018-04-15T07:44:07.498Z,23.07
2018-04-15T07:46:35.744Z,20.70
2018-04-15T07:49:03.338Z,20.37
2018-04-15T07:51:30.827Z,20.00
2018-04-15T07:53:59.114Z,20.30
2018-04-15T07:56:27.425Z,24.80
2018-04-15T07:58:55.018Z,18.93
2018-04-15T08:01:22.539Z,21.83
2018-04-15T08:03:50.127Z,19.60
2018-04-15T08:06:18.503Z,18.87
2018-04-15T08:08:46.093Z,22.00
2018-04-15T08:11:14.404Z,17.43
2018-04-15T08:13:41.925Z,15.97
2018-04-15T08:16:09.753Z,15.67
2018-04-15T08:18:37.277Z,16.87
2018-04-15T08:21:04.863Z,14.10
2018-04-15T08:23:32.401Z,15.83
2018-04-15T08:26:00.060Z,13.33
2018-04-15T08:28:27.543Z,17.50
2018-04-15T08:30:55.125Z,11.97
2018-04-15T08:33:22.775Z,14.47
2018-04-15T08:35:50.286Z,14.73
2018-04-15T08:38:17.984Z,15.43
2018-04-15T08:40:46.296Z,13.47
2018-04-15T08:43:13.839Z,18.00
2018-04-15T08:45:42.152Z,13.60
2018-04-15T08:48:09.824Z,12.17
2018-04-15T08:50:37.387Z,14.27
2018-04-15T08:53:04.916Z,13.40
2018-04-15T08:55:32.512Z,12.37
2018-04-15T08:58:01.035Z,12.23
2018-04-15T09:03:04.240Z,12.30
2018-04-15T09:05:32.549Z,10.13
2018-04-15T09:08:00.085Z,10.43
2018-04-15T09:10:28.356Z,11.00
2018-04-15T09:12:55.887Z,14.60
2018-04-15T09:15:23.485Z,10.83
2018-04-15T09:17:51.104Z,10.93
2018-04-15T09:20:18.617Z,10.70
2018-04-15T09:22:46.345Z,12.00
2018-04-15T09:25:14.705Z,10.33
2018-04-15T09:27:42.194Z,11.33
2018-04-15T09:30:09.794Z,11.60
2018-04-15T09:32:37.244Z,12.13
2018-04-15T09:35:05.612Z,12.53
2018-04-15T09:37:33.148Z,13.40
2018-04-15T09:40:00.672Z,8.90
2018-04-15T09:42:28.953Z,9.93
2018-04-15T09:44:56.573Z,8.53
2018-04-15T09:47:24.082Z,6.93
2018-04-15T09:49:51.596Z,8.80
2018-04-15T09:52:19.108Z,9.13
2018-04-15T09:54:46.612Z,7.50
2018-04-15T09:57:14.208Z,10.53
2018-04-15T09:59:41.765Z,8.37
2018-04-15T10:02:09.275Z,7.10
2018-04-15T10:04:36.917Z,6.53
2018-04-15T10:07:05.190Z,9.60
2018-04-15T10:09:33.515Z,8.97
2018-04-15T10:12:00.995Z,7.33
2018-04-15T10:14:28.540Z,7.90
2018-04-15T10:16:56.078Z,7.47
2018-04-15T10:19:23.564Z,8.97
2018-04-15T10:21:51.831Z,6.70
2018-04-15T10:24:19.424Z,8.90
2018-04-15T10:26:47.730Z,5.20
2018-04-15T10:29:15.264Z,7.40
2018-04-15T10:31:42.782Z,8.73
2018-04-15T10:34:10.284Z,13.20
2018-04-15T10:36:37.792Z,6.80
2018-04-15T10:39:06.059Z,8.10
2018-04-15T10:41:34.586Z,5.30
2018-04-15T10:44:02.862Z,4.90
2018-04-15T10:46:31.150Z,6.43
2018-04-15T10:48:59.427Z,7.53
2018-04-15T10:51:26.998Z,6.77
2018-04-15T10:53:56.002Z,7.20
2018-04-15T10:56:23.546Z,9.00
2018-04-15T10:58:51.021Z,6.93
2018-04-15T11:01:18.648Z,5.43
2018-04-15T11:03:46.191Z,4.50
2018-04-15T11:06:14.482Z,6.47
2018-04-15T11:08:42.136Z,6.03
2018-04-15T11:11:09.647Z,4.47
2018-04-15T11:13:37.947Z,6.63
2018-04-15T11:16:05.503Z,8.47
2018-04-15T11:18:33.888Z,6.20
2018-04-15T11:21:02.146Z,7.40
2018-04-15T11:23:29.627Z,5.10
2018-04-15T11:25:57.188Z,5.83
2018-04-15T11:28:24.674Z,4.73
2018-04-15T11:30:53.041Z,5.83
2018-04-15T11:33:20.528Z,7.60
2018-04-15T11:35:48.595Z,7.00
2018-04-15T11:38:16.199Z,3.80
2018-04-15T11:40:44.473Z,3.90
2018-04-15T11:43:12.407Z,4.60
2018-04-15T11:45:39.928Z,5.33
2018-04-15T11:48:07.408Z,4.40
2018-04-15T11:50:35.723Z,3.90
2018-04-15T11:53:03.214Z,3.57
2018-04-15T11:55:30.730Z,4.37
2018-04-15T11:57:58.364Z,3.70
2018-04-15T12:00:25.976Z,5.80
2018-04-15T12:02:54.246Z,3.40
2018-04-15T12:05:21.758Z,3.00
2018-04-15T12:07:49.243Z,4.30
2018-04-15T12:10:16.923Z,3.67
2018-04-15T12:12:44.540Z,4.97
2018-04-15T12:15:12.261Z,3.10
2018-04-15T12:17:39.838Z,4.07
2018-04-15T12:20:07.328Z,3.00
2018-04-15T12:22:35.519Z,2.53
2018-04-15T12:25:03.041Z,3.30
2018-04-15T12:27:31.325Z,4.23
2018-04-15T12:29:59.592Z,2.90
2018-04-15T12:32:27.156Z,3.17
2018-04-15T12:34:55.422Z,5.17
2018-04-15T12:37:23.101Z,4.90
2018-04-15T12:39:50.601Z,2.53
2018-04-15T12:42:19.172Z,2.53
2018-04-15T12:44:46.675Z,2.53
2018-04-15T12:47:14.963Z,1.87
2018-04-15T12:49:43.267Z,2.33
2018-04-15T12:52:11.564Z,4.03
2018-04-15T12:54:39.119Z,3.20
2018-04-15T12:57:07.409Z,3.70
2018-04-15T12:59:35.887Z,2.93
2018-04-15T13:02:03.370Z,3.17
2018-04-15T13:04:31.654Z,2.60
2018-04-15T13:06:59.934Z,4.33
2018-04-15T13:09:27.523Z,3.00
2018-04-15T13:11:55.795Z,2.70
2018-04-15T13:14:23.379Z,4.40
2018-04-15T13:16:51.680Z,3.53
2018-04-15T13:19:19.163Z,4.27
2018-04-15T13:21:46.702Z,3.60
2018-04-15T13:24:15.002Z,3.67
2018-04-15T13:26:43.305Z,2.97
2018-04-15T13:29:12.213Z,3.30
2018-04-15T13:31:39.733Z,4.67
2018-04-15T13:34:07.220Z,6.93
2018-04-15T13:36:35.039Z,4.10
2018-04-15T13:39:03.165Z,4.57
2018-04-15T13:41:30.684Z,5.10
2018-04-15T13:43:58.173Z,2.90
2018-04-15T13:46:25.731Z,4.93
2018-04-15T13:48:53.225Z,12.60
2018-04-15T13:51:20.728Z,4.63
2018-04-15T13:53:48.288Z,6.27
2018-04-15T13:56:16.551Z,6.13
2018-04-15T13:58:44.124Z,5.80
2018-04-15T14:01:11.611Z,4.73
2018-04-15T14:03:39.171Z,5.80
2018-04-15T14:06:06.710Z,4.73
2018-04-15T14:08:34.274Z,2.40
2018-04-15T14:11:01.940Z,6.00
2018-04-15T14:13:30.219Z,2.93
2018-04-15T14:15:58.496Z,2.63
2018-04-15T14:18:26.057Z,3.00
2018-04-15T14:20:53.580Z,3.70
2018-04-15T14:23:21.102Z,3.23
2018-04-15T14:25:48.580Z,3.50
2018-04-15T14:28:16.178Z,5.10
2018-04-15T14:30:43.679Z,3.60
2018-04-15T14:33:11.205Z,2.87
2018-04-15T14:35:39.495Z,4.43
2018-04-15T14:38:07.772Z,3.80
2018-04-15T14:40:35.292Z,2.87
2018-04-15T14:43:02.817Z,5.27
2018-04-15T14:45:31.113Z,4.63
2018-04-15T14:47:58.624Z,4.50
2018-04-15T14:50:26.211Z,3.67
2018-04-15T14:52:53.742Z,6.03
2018-04-15T14:55:21.225Z,12.30
2018-04-15T14:57:48.782Z,4.60
2018-04-15T15:00:16.260Z,4.30
2018-04-15T15:02:43.843Z,4.97
2018-04-15T15:05:11.361Z,4.83
2018-04-15T15:07:39.026Z,3.37
2018-04-15T15:10:06.555Z,3.87
2018-04-15T15:12:34.046Z,2.53
2018-04-15T15:15:01.577Z,2.93
2018-04-15T15:17:29.057Z,3.03
2018-04-15T15:19:56.619Z,14.27
2018-04-15T15:22:24.171Z,5.13
2018-04-15T15:24:52.425Z,3.20
2018-04-15T15:27:19.939Z,2.77
2018-04-15T15:29:48.202Z,7.20
2018-04-15T15:32:16.532Z,6.00
2018-04-15T15:34:44.023Z,5.33
2018-04-15T15:37:11.630Z,4.90
2018-04-15T15:39:39.132Z,9.10
2018-04-15T15:42:07.452Z,5.37
2018-04-15T15:44:34.998Z,3.80
2018-04-15T15:47:02.737Z,3.47
2018-04-15T15:49:30.265Z,6.03
2018-04-15T15:51:57.816Z,2.43
2018-04-15T15:54:25.392Z,5.70
2018-04-15T15:56:53.663Z,6.63
2018-04-15T15:59:22.031Z,10.40
2018-04-15T16:01:49.547Z,5.80
2018-04-15T16:04:17.083Z,4.50
2018-04-15T16:06:44.667Z,8.60
2018-04-15T16:09:12.168Z,6.20
2018-04-15T16:11:39.696Z,4.07
2018-04-15T16:14:07.990Z,9.17
2018-04-15T16:16:36.280Z,11.20
2018-04-15T16:19:04.561Z,8.00
2018-04-15T16:21:32.212Z,6.60
2018-04-15T16:23:59.815Z,5.53
2018-04-15T16:26:28.109Z,8.10
2018-04-15T16:28:56.385Z,12.10
2018-04-15T16:31:24.674Z,8.53
2018-04-15T16:33:52.966Z,10.23
2018-04-15T16:36:20.775Z,5.40
2018-04-15T16:38:48.454Z,3.30
2018-04-15T16:41:16.026Z,10.40
2018-04-15T16:43:43.617Z,5.73
2018-04-15T16:46:11.160Z,7.23
2018-04-15T16:48:38.774Z,4.83
2018-04-15T16:51:06.417Z,4.97
2018-04-15T16:53:33.953Z,9.37
2018-04-15T16:56:02.292Z,7.80
2018-04-15T16:58:29.859Z,6.07
2018-04-15T17:00:57.464Z,12.70
2018-04-15T17:03:24.973Z,13.13
2018-04-15T17:05:53.302Z,8.50
2018-04-15T17:08:20.929Z,13.70
2018-04-15T17:10:49.230Z,9.53
2018-04-15T17:13:16.772Z,11.80
2018-04-15T17:15:44.356Z,10.03
2018-04-15T17:18:12.783Z,11.77
2018-04-15T17:20:40.651Z,6.67
2018-04-15T17:23:08.201Z,15.93
2018-04-15T17:25:36.543Z,6.50
2018-04-15T17:28:04.245Z,8.37
2018-04-15T17:30:31.815Z,5.30
2018-04-15T17:32:59.416Z,9.20
2018-04-15T17:35:26.942Z,12.10
2018-04-15T17:37:54.525Z,10.70
2018-04-15T17:40:22.072Z,7.67
2018-04-15T17:42:49.611Z,8.13
2018-04-15T17:45:17.157Z,11.70
2018-04-15T17:47:45.555Z,11.03
2018-04-15T17:50:13.887Z,8.27
2018-04-15T17:52:41.474Z,12.20
2018-04-15T17:55:09.049Z,6.00
2018-04-15T17:57:36.584Z,7.43
2018-04-15T18:00:04.075Z,6.50
2018-04-15T18:02:31.647Z,8.10
2018-04-15T18:04:59.286Z,6.23
2018-04-15T18:07:26.913Z,7.20
2018-04-15T18:09:54.537Z,9.13
2018-04-15T18:12:22.053Z,8.53
2018-04-15T18:14:49.592Z,10.13
2018-04-15T18:17:17.170Z,8.37
2018-04-15T18:19:44.828Z,7.70
2018-04-15T18:22:12.411Z,10.73
2018-04-15T18:24:39.975Z,11.83
2018-04-15T18:27:07.612Z,9.00
2018-04-15T18:29:36.095Z,6.93
2018-04-15T18:32:03.626Z,45.37
2018-04-15T18:34:31.327Z,11.23
2018-04-15T18:36:58.935Z,9.30
2018-04-15T18:39:27.245Z,7.07
2018-04-15T18:41:54.941Z,7.10
2018-04-15T18:44:22.602Z,8.03
2018-04-15T18:46:50.921Z,6.70
2018-04-15T18:49:18.515Z,13.00
2018-04-15T18:51:46.164Z,6.30
2018-04-15T18:54:14.570Z,7.73
2018-04-15T18:56:42.134Z,7.77
2018-04-15T18:59:09.963Z,8.80
2018-04-15T19:01:37.530Z,9.20
2018-04-15T19:04:05.106Z,11.40
2018-04-15T19:06:32.687Z,12.70
2018-04-15T19:09:00.290Z,13.40
2018-04-15T19:11:27.878Z,11.47
2018-04-15T22:49:15.898Z,24.30
2018-04-15T22:51:43.432Z,21.70
2018-04-15T22:54:10.968Z,23.23
2018-04-15T22:56:43.086Z,20.20
2018-04-15T22:59:10.771Z,26.20
2018-04-15T23:01:38.278Z,22.13
2018-04-15T23:04:05.831Z,21.00
2018-04-15T23:06:33.329Z,21.83
2018-04-15T23:09:01.093Z,27.30
2018-04-15T23:11:28.603Z,26.40
2018-04-15T23:13:56.284Z,20.30
2018-04-15T23:16:23.794Z,26.33
2018-04-15T23:18:51.364Z,23.47
2018-04-15T23:21:18.880Z,24.93
2018-04-15T23:23:47.176Z,21.93
2018-04-15T23:26:14.812Z,22.73
2018-04-15T23:28:42.300Z,23.97
2018-04-15T23:31:10.611Z,24.40
2018-04-15T23:33:38.128Z,23.43
2018-04-15T23:36:05.762Z,26.50
2018-04-15T23:38:34.273Z,23.47
2018-04-15T23:41:01.771Z,25.30
2018-04-15T23:43:29.296Z,26.10
2018-04-15T23:45:56.824Z,30.83
2018-04-15T23:48:25.205Z,24.80
2018-04-15T23:50:53.505Z,22.70
2018-04-15T23:53:21.102Z,27.47
2018-04-15T23:55:49.385Z,25.00
2018-04-15T23:58:17.669Z,25.40
